Elk Run Heights, IA

2:13 PM CST on February 21, 2017 (GMT -0600)
Tagtow Weather Station | | Change Station
Active Advisory: Flood Warning

Elev 879 ft 42.50 °N, 92.23 °W | Updated 6 seconds ago

Clear
Clear
61.5 °F
Feels Like 61.5 °F
N
5.0
Wind Variable Wind from SSE

Today
High -- | Low -- °F
--% Chance of Precip.
Yesterday
High -- | Low -- °F
Precip. -- in
Pressure 29.90 in
Visibility 10.0 miles
Clouds Clear
Dew Point 45 °F
Humidity 55%
Rainfall 0.00 in
Snow Depth Not available.
6:56 AM 5:49 PM
Waning Crescent, 23% visible
METAR KALO 211954Z 20008KT 10SM CLR 15/05 A2989 RMK AO2 SLP125 T01500050
Pressure 29.90 in
Visibility 10.0 miles
Clouds Clear
Dew Point 45 °F
Humidity 55%
Rainfall 0.00 in
Snow Depth Not available.
6:56 AM 5:49 PM
Waning Crescent, 23% visible
METAR KALO 211954Z 20008KT 10SM CLR 15/05 A2989 RMK AO2 SLP125 T01500050

Get Your Daily Forecast Email!

Thanks for signing up!

Be on the lookout for a verification email in your inbox.

You'll start receiving the daily forecast at 8 AM.

×

10-Day Weather Forecast

Almanac

Astronomy

Feb. 21, 2017 Rise Set
Actual Time
Civil Twilight
Nautical Twilight
Astronomical Twilight
Moon
Length of Visible Light
Length of Day
Tomorrow will be .
, % of the Moon is Illuminated

Today's Extremes

State Highs State Lows

Community

WunderPhotos

Upload Photos

1,962,540 photos uploaded!

WunderBlog® & News

Nearby

Air Quality

  Air Quality AQ Index Pollutant
Not available.

Snow Depth

Station Depth Elevation

Earthquake Activity

City Distance Mag. Time & Date
Minimum magnitude displayed is 2.5.

Coastal Water Temperatures

Place Temperature

Stations

Nearby Weather Stations

Station Location Temp. Windchill Dew Point Humidity Wind Precip. Elev Updated Type
                   

Watches & Warnings

Flood Warning
Issued: 11:18 AM CST Feb. 21, 2017 – National Weather Service

... Flood Warning in effect until early Saturday morning...

The National Weather Service in Des Moines has issued a
* Flood Warning for
the Cedar River at Cedar Falls... or from the West Fork Cedar
River... to the Cedar Falls-Waterloo city limits.
* Until early Saturday morning.
* At 10:45 am Tuesday the stage was 86.0 feet... or 2.0 feet below
flood stage.
* Flood stage is 88.0 feet.
* No flooding is occurring and minor flooding is forecast.
* Forecast... rise to flood stage Wednesday morning. Continue rising
to 89.7 feet... or 1.7 feet above flood stage... midday Thursday.
Then begin falling and go below flood stage early Saturday
morning.
* Impact... at 89.7 feet... water covers the Road at 1712 and 1118
Cottage row Road.


Lat... Lon 4256 9238 4251 9245 4258 9255 4262 9255
      4262 9241 4256 9238